Wetterstation Vordersexau
Wetterdaten: Woche 06.03.17 - 12.03.17 (KW10)
Datum Zeit Temp. A. Feuchte A. Luftdruck Regen Wind Richtung Taupunkt Windchill Windben
06.03.2017 00:00 5,9 C 79 % 1005,0 hPa 0,0 l/m 12,3 km/h S 2,5 C 1,6 C 6,8 km/h
06.03.2017 01:00 5,6 C 82 % 1005,3 hPa 0,0 l/m 3,9 km/h S-SW 2,8 C 5,6 C 2,2 km/h
06.03.2017 02:00 5,9 C 80 % 1005,3 hPa 0,0 l/m 15,6 km/h S 2,7 C -0,1 C 8,6 km/h
06.03.2017 03:00 6,1 C 77 % 1004,8 hPa 0,0 l/m 15,6 km/h W-SW 2,4 C 0,1 C 8,6 km/h
06.03.2017 04:00 5,2 C 83 % 1005,0 hPa 0,0 l/m 18,8 km/h S-SW 2,6 C -2,4 C 10,4 km/h
06.03.2017 05:00 5,5 C 84 % 1004,8 hPa 0,0 l/m 6,5 km/h W-SW 3,0 C 5,4 C 3,6 km/h
06.03.2017 06:00 5,6 C 83 % 1004,6 hPa 0,0 l/m 14,9 km/h S-SW 2,9 C -0,1 C 8,3 km/h
06.03.2017 07:00 6,1 C 82 % 1004,2 hPa 0,0 l/m 30,5 km/h S-SW 3,3 C -5,0 C 16,9 km/h
06.03.2017 08:00 6,8 C 80 % 1003,4 hPa 0,0 l/m 20,7 km/h SW 3,6 C -1,1 C 11,5 km/h
06.03.2017 09:00 8,3 C 76 % 1002,8 hPa 0,0 l/m 3,2 km/h S-SW 4,3 C 8,3 C 1,8 km/h
06.03.2017 10:00 10,3 C 68 % 1001,6 hPa 0,0 l/m 26,6 km/h S-SW 4,7 C 1,8 C 14,8 km/h
06.03.2017 11:00 9,8 C 69 % 1000,5 hPa 0,0 l/m 0,0 km/h W-NW 4,4 C 9,8 C 0,0 km/h
06.03.2017 12:00 7,1 C 79 % 999,5 hPa 0,0 l/m 0,0 km/h S-SW 3,7 C 7,1 C 0,0 km/h
06.03.2017 13:00 7,5 C 81 % 997,8 hPa 0,5 l/m 8,4 km/h S 4,5 C 5,9 C 4,7 km/h
06.03.2017 14:00 7,8 C 81 % 997,1 hPa 0,0 l/m 0,0 km/h O-NO 4,7 C 7,8 C 0,0 km/h
06.03.2017 15:00 5,9 C 83 % 997,7 hPa 3,1 l/m 0,0 km/h N-NO 3,2 C 5,9 C 0,0 km/h
06.03.2017 16:00 6,1 C 84 % 998,4 hPa 1,6 l/m 3,2 km/h SO 3,6 C 6,1 C 1,8 km/h
06.03.2017 17:00 5,0 C 85 % 999,6 hPa 0,5 l/m 9,1 km/h N-NO 2,7 C 2,7 C 5,0 km/h
06.03.2017 18:00 4,8 C 86 % 1001,8 hPa 0,0 l/m 0,0 km/h O-NO 2,7 C 4,8 C 0,0 km/h
06.03.2017 19:00 4,6 C 86 % 1003,1 hPa 0,5 l/m 0,0 km/h O 2,5 C 4,6 C 0,0 km/h
06.03.2017 20:00 4,4 C 85 % 1004,4 hPa 0,0 l/m 0,0 km/h W 2,1 C 4,4 C 0,0 km/h
06.03.2017 21:00 4,6 C 84 % 1006,1 hPa 0,5 l/m 0,0 km/h S-SW 2,1 C 4,6 C 0,0 km/h
06.03.2017 22:00 4,7 C 84 % 1007,0 hPa 0,0 l/m 0,0 km/h W-SW 2,2 C 4,7 C 0,0 km/h
06.03.2017 23:00 5,0 C 85 % 1007,6 hPa 0,0 l/m 14,9 km/h W 2,7 C -0,9 C 8,3 km/h
07.03.2017 00:00 5,0 C 86 % 1008,8 hPa 0,0 l/m 0,6 km/h W-SW 2,9 C 5,0 C 0,4 km/h
07.03.2017 01:00 4,9 C 86 % 1009,2 hPa 0,0 l/m 20,1 km/h W 2,8 C -3,3 C 11,2 km/h
07.03.2017 02:00 4,5 C 85 % 1009,7 hPa 0,0 l/m 5,2 km/h W-SW 2,2 C 4,5 C 2,9 km/h
07.03.2017 03:00 4,3 C 84 % 1010,1 hPa 0,0 l/m 7,8 km/h N-NW 1,8 C 3,0 C 4,3 km/h
07.03.2017 04:00 3,8 C 84 % 1010,6 hPa 1,0 l/m 0,0 km/h W-SW 1,4 C 3,8 C 0,0 km/h
07.03.2017 05:00 4,1 C 83 % 1011,1 hPa 0,0 l/m 0,0 km/h W-SW 1,5 C 4,1 C 0,0 km/h
07.03.2017 06:00 3,9 C 82 % 1011,6 hPa 0,5 l/m 8,4 km/h SW 1,1 C 2,1 C 4,7 km/h
07.03.2017 07:00 4,4 C 83 % 1012,1 hPa 0,0 l/m 7,1 km/h W 1,8 C 3,8 C 4,0 km/h
07.03.2017 08:00 4,5 C 85 % 1013,1 hPa 0,0 l/m 9,1 km/h W-SW 2,2 C 2,2 C 5,0 km/h
07.03.2017 09:00 4,8 C 86 % 1013,5 hPa 0,0 l/m 11,7 km/h W-NW 2,7 C 0,7 C 6,5 km/h
07.03.2017 10:00 4,2 C 86 % 1014,5 hPa 0,5 l/m 0,0 km/h S 2,1 C 4,2 C 0,0 km/h
07.03.2017 11:00 5,3 C 86 % 1014,6 hPa 0,5 l/m 0,0 km/h SO 3,2 C 5,3 C 0,0 km/h
07.03.2017 12:00 5,9 C 85 % 1014,4 hPa 0,0 l/m 0,0 km/h NO 3,6 C 5,9 C 0,0 km/h
07.03.2017 13:00 6,8 C 85 % 1014,5 hPa 0,0 l/m 0,0 km/h SW 4,5 C 6,8 C 0,0 km/h
07.03.2017 14:00 8,9 C 78 % 1014,9 hPa 0,0 l/m 0,0 km/h NW 5,3 C 8,9 C 0,0 km/h
07.03.2017 15:00 6,6 C 81 % 1015,5 hPa 0,0 l/m 0,0 km/h O-SO 3,6 C 6,6 C 0,0 km/h
07.03.2017 16:00 6,8 C 81 % 1015,9 hPa 0,0 l/m 0,0 km/h SO 3,8 C 6,8 C 0,0 km/h
07.03.2017 17:00 5,8 C 84 % 1016,7 hPa 0,0 l/m 0,0 km/h O-SO 3,3 C 5,8 C 0,0 km/h
07.03.2017 18:00 4,7 C 86 % 1017,2 hPa 0,0 l/m 0,0 km/h SO 2,6 C 4,7 C 0,0 km/h
07.03.2017 19:00 4,1 C 86 % 1017,8 hPa 0,0 l/m 0,0 km/h SO 2,0 C 4,1 C 0,0 km/h
07.03.2017 20:00 3,4 C 86 % 1018,4 hPa 0,0 l/m 0,0 km/h O-SO 1,3 C 3,4 C 0,0 km/h
07.03.2017 21:00 3,2 C 85 % 1019,4 hPa 0,0 l/m 0,0 km/h O-SO 0,9 C 3,2 C 0,0 km/h
07.03.2017 22:00 2,9 C 85 % 1019,6 hPa 0,0 l/m 0,0 km/h O-SO 0,6 C 2,9 C 0,0 km/h
07.03.2017 23:00 2,4 C 84 % 1020,3 hPa 0,0 l/m 0,0 km/h O-SO -0,0 C 2,4 C 0,0 km/h
08.03.2017 00:00 2,1 C 83 % 1020,9 hPa 0,0 l/m 0,0 km/h O-SO -0,5 C 2,1 C 0,0 km/h
08.03.2017 01:00 2,1 C 83 % 1020,7 hPa 0,0 l/m 0,0 km/h O-SO -0,5 C 2,1 C 0,0 km/h
08.03.2017 02:00 1,2 C 83 % 1020,7 hPa 0,0 l/m 0,0 km/h O-SO -1,4 C 1,2 C 0,0 km/h
08.03.2017 03:00 0,8 C 82 % 1020,5 hPa 0,0 l/m 0,0 km/h O-SO -1,9 C 0,8 C 0,0 km/h
08.03.2017 04:00 -0,1 C 82 % 1020,9 hPa 0,0 l/m 0,0 km/h O-SO -2,8 C -0,1 C 0,0 km/h
08.03.2017 05:00 -0,4 C 82 % 1021,0 hPa 0,0 l/m 0,0 km/h O-SO -3,1 C -0,4 C 0,0 km/h
08.03.2017 06:00 -0,2 C 81 % 1020,6 hPa 0,0 l/m 0,0 km/h O-SO -3,1 C -0,2 C 0,0 km/h
08.03.2017 07:00 2,3 C 71 % 1020,4 hPa 0,0 l/m 0,0 km/h O-SO -2,4 C 2,3 C 0,0 km/h
08.03.2017 08:00 3,9 C 76 % 1021,0 hPa 0,0 l/m 0,0 km/h O-SO 0,1 C 3,9 C 0,0 km/h
08.03.2017 09:00 6,9 C 76 % 1020,3 hPa 0,0 l/m 0,0 km/h W-SW 3,0 C 6,9 C 0,0 km/h
08.03.2017 10:00 11,9 C 73 % 1020,1 hPa 0,0 l/m 3,2 km/h S-SW 7,2 C 11,9 C 1,8 km/h
08.03.2017 11:00 12,8 C 65 % 1019,3 hPa 0,0 l/m 11,7 km/h W-NW 6,4 C 9,9 C 6,5 km/h
08.03.2017 12:00 11,1 C 56 % 1019,1 hPa 0,0 l/m 12,3 km/h W-SW 2,7 C 7,6 C 6,8 km/h
08.03.2017 13:00 7,9 C 70 % 1019,4 hPa 0,0 l/m 7,1 km/h S-SW 2,8 C 7,3 C 4,0 km/h
08.03.2017 14:00 6,4 C 82 % 1019,1 hPa 0,5 l/m 8,4 km/h SO 3,6 C 4,8 C 4,7 km/h
08.03.2017 15:00 6,5 C 84 % 1018,1 hPa 0,5 l/m 5,8 km/h W-SW 4,0 C 6,5 C 3,2 km/h
08.03.2017 16:00 8,1 C 83 % 1018,3 hPa 0,0 l/m 24,0 km/h SW 5,4 C -0,5 C 13,3 km/h
08.03.2017 17:00 8,4 C 81 % 1018,6 hPa 0,0 l/m 5,2 km/h S-SW 5,3 C 8,4 C 2,9 km/h
08.03.2017 18:00 8,9 C 83 % 1018,4 hPa 0,0 l/m 22,7 km/h W-SW 6,2 C 1,0 C 12,6 km/h
08.03.2017 19:00 8,5 C 85 % 1018,6 hPa 0,0 l/m 16,2 km/h W-SW 6,1 C 2,8 C 9,0 km/h
08.03.2017 20:00 9,8 C 85 % 1018,2 hPa 0,0 l/m 25,9 km/h W-SW 7,4 C 1,3 C 14,4 km/h
08.03.2017 21:00 10,2 C 84 % 1018,4 hPa 0,0 l/m 19,4 km/h W-SW 7,6 C 3,7 C 10,8 km/h
08.03.2017 22:00 10,6 C 84 % 1018,1 hPa 0,0 l/m 27,2 km/h SW 8,0 C 2,1 C 15,1 km/h
08.03.2017 23:00 10,8 C 84 % 1018,0 hPa 0,0 l/m 24,6 km/h SW 8,2 C 3,0 C 13,7 km/h
09.03.2017 00:00 10,5 C 85 % 1018,2 hPa 0,0 l/m 6,5 km/h SW 8,1 C 10,5 C 3,6 km/h
09.03.2017 01:00 9,9 C 85 % 1018,4 hPa 0,0 l/m 4,5 km/h W 7,5 C 9,9 C 2,5 km/h
09.03.2017 02:00 10,3 C 84 % 1018,3 hPa 0,0 l/m 24,0 km/h SW 7,7 C 2,5 C 13,3 km/h
09.03.2017 03:00 10,6 C 85 % 1018,3 hPa 0,0 l/m 24,0 km/h SW 8,2 C 2,9 C 13,3 km/h
09.03.2017 04:00 10,5 C 85 % 1018,4 hPa 0,0 l/m 24,0 km/h W-SW 8,1 C 2,8 C 13,3 km/h
09.03.2017 05:00 10,2 C 85 % 1018,9 hPa 0,0 l/m 27,2 km/h SW 7,8 C 1,6 C 15,1 km/h
09.03.2017 06:00 9,8 C 81 % 1019,3 hPa 2,1 l/m 25,9 km/h SW 6,7 C 1,3 C 14,4 km/h
09.03.2017 07:00 9,8 C 78 % 1019,1 hPa 1,0 l/m 9,1 km/h S-SW 6,1 C 7,9 C 5,0 km/h
09.03.2017 08:00 9,8 C 80 % 1018,9 hPa 0,0 l/m 18,1 km/h SW 6,5 C 3,7 C 10,1 km/h
09.03.2017 09:00 10,3 C 81 % 1018,7 hPa 0,0 l/m 18,1 km/h W-SW 7,2 C 4,3 C 10,1 km/h
09.03.2017 10:00 10,3 C 84 % 1019,4 hPa 0,5 l/m 34,3 km/h S-SW 7,7 C 0,2 C 19,1 km/h
09.03.2017 11:00 10,1 C 80 % 1019,5 hPa 2,1 l/m 21,4 km/h S 6,8 C 3,0 C 11,9 km/h
09.03.2017 12:00 10,5 C 82 % 1019,2 hPa 0,5 l/m 16,2 km/h SW 7,6 C 5,3 C 9,0 km/h
09.03.2017 13:00 10,3 C 83 % 1019,2 hPa 0,5 l/m 1,3 km/h SW 7,5 C 10,3 C 0,7 km/h
09.03.2017 14:00 10,3 C 82 % 1019,2 hPa 0,5 l/m 7,8 km/h W 7,4 C 9,3 C 4,3 km/h
09.03.2017 15:00 10,4 C 83 % 1019,4 hPa 0,0 l/m 9,1 km/h W-NW 7,6 C 8,6 C 5,0 km/h
09.03.2017 16:00 10,3 C 83 % 1019,8 hPa 0,5 l/m 1,9 km/h SW 7,5 C 10,3 C 1,1 km/h
09.03.2017 17:00 10,2 C 84 % 1019,8 hPa 0,0 l/m 2,6 km/h W-SW 7,6 C 10,2 C 1,4 km/h
09.03.2017 18:00 10,3 C 84 % 1020,4 hPa 0,0 l/m 5,8 km/h SW 7,7 C 10,3 C 3,2 km/h
09.03.2017 19:00 10,2 C 85 % 1020,7 hPa 0,0 l/m 3,9 km/h W-NW 7,8 C 10,2 C 2,2 km/h
09.03.2017 20:00 10,1 C 83 % 1021,3 hPa 0,0 l/m 1,9 km/h W 7,3 C 10,1 C 1,1 km/h
09.03.2017 21:00 9,5 C 84 % 1021,8 hPa 0,0 l/m 0,0 km/h W 6,9 C 9,5 C 0,0 km/h
09.03.2017 22:00 9,3 C 83 % 1021,9 hPa 0,0 l/m 0,0 km/h W 6,6 C 9,3 C 0,0 km/h
09.03.2017 23:00 8,2 C 83 % 1022,2 hPa 0,0 l/m 0,0 km/h SW 5,5 C 8,2 C 0,0 km/h
10.03.2017 00:00 7,1 C 82 % 1022,6 hPa 0,0 l/m 0,0 km/h SW 4,2 C 7,1 C 0,0 km/h
10.03.2017 01:00 7,3 C 81 % 1023,0 hPa 0,0 l/m 0,0 km/h NW 4,3 C 7,3 C 0,0 km/h
10.03.2017 02:00 5,8 C 81 % 1023,0 hPa 0,0 l/m 0,0 km/h NW 2,8 C 5,8 C 0,0 km/h
10.03.2017 03:00 5,9 C 80 % 1023,1 hPa 0,0 l/m 0,0 km/h NW 2,7 C 5,9 C 0,0 km/h
10.03.2017 04:00 5,3 C 80 % 1023,3 hPa 0,0 l/m 0,0 km/h O 2,1 C 5,3 C 0,0 km/h
10.03.2017 05:00 5,1 C 79 % 1023,9 hPa 0,0 l/m 0,0 km/h NO 1,8 C 5,1 C 0,0 km/h
10.03.2017 06:00 3,2 C 79 % 1024,3 hPa 0,0 l/m 0,0 km/h NO -0,1 C 3,2 C 0,0 km/h
10.03.2017 07:00 5,8 C 62 % 1024,6 hPa 0,0 l/m 0,0 km/h O-SO -0,9 C 5,8 C 0,0 km/h
10.03.2017 08:00 8,4 C 78 % 1025,2 hPa 0,0 l/m 0,0 km/h SW 4,8 C 8,4 C 0,0 km/h
10.03.2017 09:00 14,4 C 81 % 1025,3 hPa 0,0 l/m 0,0 km/h NW 11,2 C 14,4 C 0,0 km/h
10.03.2017 10:00 15,9 C 63 % 1025,3 hPa 0,0 l/m 0,0 km/h W-NW 8,9 C 15,9 C 0,0 km/h
10.03.2017 11:00 17,8 C 55 % 1024,8 hPa 0,5 l/m 1,3 km/h W-SW 8,6 C 17,8 C 0,7 km/h
10.03.2017 12:00 17,3 C 52 % 1024,2 hPa 0,0 l/m 0,0 km/h W-NW 7,3 C 17,3 C 0,0 km/h
10.03.2017 13:00 17,1 C 52 % 1023,5 hPa 0,0 l/m 1,9 km/h W 7,2 C 17,1 C 1,1 km/h
10.03.2017 14:00 19,2 C 47 % 1022,9 hPa 0,0 l/m 0,6 km/h N 7,6 C 19,2 C 0,4 km/h
10.03.2017 15:00 22,7 C 32 % 1022,6 hPa 0,0 l/m 0,0 km/h N 5,2 C 22,7 C 0,0 km/h
10.03.2017 16:00 21,8 C 31 % 1022,1 hPa 0,0 l/m 7,1 km/h N 3,9 C 21,6 C 4,0 km/h
10.03.2017 17:00 18,7 C 30 % 1022,5 hPa 0,0 l/m 0,0 km/h O-SO 0,8 C 18,7 C 0,0 km/h
10.03.2017 18:00 7,6 C 58 % 1022,9 hPa 0,0 l/m 0,0 km/h O-SO -0,1 C 7,6 C 0,0 km/h
10.03.2017 19:00 5,3 C 69 % 1023,4 hPa 0,0 l/m 0,0 km/h O-SO 0,1 C 5,3 C 0,0 km/h
10.03.2017 20:00 4,8 C 75 % 1023,2 hPa 0,0 l/m 0,0 km/h O-SO 0,8 C 4,8 C 0,0 km/h
10.03.2017 21:00 3,6 C 77 % 1022,8 hPa 0,0 l/m 0,0 km/h O-SO -0,0 C 3,6 C 0,0 km/h
10.03.2017 22:00 2,8 C 79 % 1022,8 hPa 0,0 l/m 0,0 km/h O-NO -0,5 C 2,8 C 0,0 km/h
10.03.2017 23:00 2,9 C 80 % 1022,5 hPa 0,0 l/m 0,0 km/h O-NO -0,2 C 2,9 C 0,0 km/h
11.03.2017 00:00 1,6 C 82 % 1022,5 hPa 0,0 l/m 0,0 km/h O-NO -1,1 C 1,6 C 0,0 km/h
11.03.2017 01:00 0,1 C 83 % 1022,6 hPa 0,0 l/m 0,0 km/h O-NO -2,4 C 0,1 C 0,0 km/h
11.03.2017 02:00 -0,1 C 84 % 1021,6 hPa 0,0 l/m 0,0 km/h O-NO -2,5 C -0,1 C 0,0 km/h
11.03.2017 03:00 -0,8 C 85 % 1021,0 hPa 0,0 l/m 0,0 km/h O-NO -3,0 C -0,8 C 0,0 km/h
11.03.2017 04:00 -0,7 C 86 % 1020,5 hPa 0,0 l/m 0,0 km/h NO -2,7 C -0,7 C 0,0 km/h
11.03.2017 05:00 -0,7 C 86 % 1020,4 hPa 0,0 l/m 0,0 km/h NO -2,7 C -0,7 C 0,0 km/h
11.03.2017 06:00 -1,4 C 86 % 1020,7 hPa 0,0 l/m 0,0 km/h O-NO -3,4 C -1,4 C 0,0 km/h
11.03.2017 07:00 4,1 C 75 % 1020,3 hPa 0,0 l/m 0,0 km/h O-NO 0,1 C 4,1 C 0,0 km/h
11.03.2017 08:00 6,2 C 80 % 1020,1 hPa 0,0 l/m 0,0 km/h NW 3,0 C 6,2 C 0,0 km/h
11.03.2017 09:00 11,8 C 66 % 1019,9 hPa 0,0 l/m 0,0 km/h W 5,7 C 11,8 C 0,0 km/h
11.03.2017 10:00 14,4 C 56 % 1019,1 hPa 0,0 l/m 0,0 km/h W 5,7 C 14,4 C 0,0 km/h
11.03.2017 11:00 16,9 C 48 % 1018,2 hPa 0,0 l/m 0,0 km/h S 5,8 C 16,9 C 0,0 km/h
11.03.2017 12:00 17,8 C 46 % 1017,5 hPa 0,0 l/m 0,0 km/h W 6,0 C 17,8 C 0,0 km/h
11.03.2017 13:00 18,2 C 43 % 1016,6 hPa 0,0 l/m 0,0 km/h W-NW 5,4 C 18,2 C 0,0 km/h
11.03.2017 14:00 19,5 C 37 % 1016,1 hPa 0,0 l/m 0,0 km/h N-NW 4,4 C 19,5 C 0,0 km/h
11.03.2017 15:00 21,6 C 34 % 1015,5 hPa 0,0 l/m 0,0 km/h W 5,1 C 21,6 C 0,0 km/h
11.03.2017 16:00 20,1 C 40 % 1015,2 hPa 0,0 l/m 0,0 km/h W 6,1 C 20,1 C 0,0 km/h
11.03.2017 17:00 15,9 C 49 % 1014,7 hPa 0,0 l/m 0,0 km/h W 5,2 C 15,9 C 0,0 km/h
11.03.2017 18:00 9,4 C 61 % 1015,2 hPa 0,0 l/m 0,0 km/h W 2,3 C 9,4 C 0,0 km/h
11.03.2017 19:00 7,1 C 72 % 1015,2 hPa 0,0 l/m 0,0 km/h W 2,4 C 7,1 C 0,0 km/h
11.03.2017 20:00 5,8 C 77 % 1015,1 hPa 0,0 l/m 0,0 km/h W 2,1 C 5,8 C 0,0 km/h
11.03.2017 21:00 5,2 C 81 % 1015,2 hPa 0,0 l/m 0,0 km/h W 2,2 C 5,2 C 0,0 km/h
11.03.2017 22:00 4,5 C 82 % 1014,9 hPa 0,0 l/m 0,0 km/h W 1,7 C 4,5 C 0,0 km/h
11.03.2017 23:00 4,5 C 83 % 1014,5 hPa 0,0 l/m 0,0 km/h W 1,9 C 4,5 C 0,0 km/h
12.03.2017 00:00 4,1 C 84 % 1014,0 hPa 0,0 l/m 0,0 km/h W 1,6 C 4,1 C 0,0 km/h
12.03.2017 01:00 2,9 C 84 % 1013,8 hPa 0,0 l/m 0,0 km/h W-NW 0,5 C 2,9 C 0,0 km/h
12.03.2017 02:00 2,0 C 85 % 1013,3 hPa 0,0 l/m 0,0 km/h W-NW -0,3 C 2,0 C 0,0 km/h
12.03.2017 03:00 1,6 C 85 % 1012,6 hPa 0,0 l/m 0,0 km/h W-NW -0,6 C 1,6 C 0,0 km/h
12.03.2017 04:00 0,7 C 86 % 1012,7 hPa 0,0 l/m 0,0 km/h W-NW -1,4 C 0,7 C 0,0 km/h
12.03.2017 05:00 0,2 C 86 % 1012,4 hPa 0,0 l/m 0,0 km/h W-NW -1,9 C 0,2 C 0,0 km/h
12.03.2017 06:00 -0,1 C 86 % 1012,3 hPa 0,0 l/m 0,0 km/h W-NW -2,2 C -0,1 C 0,0 km/h
12.03.2017 07:00 2,8 C 78 % 1012,5 hPa 0,0 l/m 0,0 km/h W-NW -0,6 C 2,8 C 0,0 km/h
12.03.2017 08:00 9,1 C 76 % 1012,4 hPa 0,0 l/m 0,0 km/h W-NW 5,1 C 9,1 C 0,0 km/h
12.03.2017 09:00 12,4 C 65 % 1012,3 hPa 0,0 l/m 0,0 km/h N 6,0 C 12,4 C 0,0 km/h
12.03.2017 10:00 15,1 C 57 % 1011,9 hPa 0,0 l/m 0,0 km/h SW 6,6 C 15,1 C 0,0 km/h
12.03.2017 11:00 17,2 C 51 % 1011,8 hPa 0,0 l/m 4,5 km/h SW 7,0 C 17,2 C 2,5 km/h
12.03.2017 12:00 17,6 C 49 % 1011,1 hPa 0,0 l/m 1,3 km/h W 6,8 C 17,6 C 0,7 km/h
12.03.2017 13:00 19,5 C 43 % 1010,3 hPa 0,0 l/m 0,0 km/h W 6,6 C 19,5 C 0,0 km/h
12.03.2017 14:00 21,5 C 40 % 1009,8 hPa 0,0 l/m 0,0 km/h W 7,3 C 21,5 C 0,0 km/h
12.03.2017 15:00 22,5 C 39 % 1009,3 hPa 0,0 l/m 0,0 km/h W 7,8 C 22,5 C 0,0 km/h
12.03.2017 16:00 20,4 C 42 % 1009,2 hPa 0,0 l/m 1,9 km/h W 7,1 C 20,4 C 1,1 km/h
12.03.2017 17:00 16,0 C 48 % 1009,6 hPa 0,0 l/m 0,0 km/h S-SO 5,0 C 16,0 C 0,0 km/h
12.03.2017 18:00 9,9 C 64 % 1010,6 hPa 0,0 l/m 0,0 km/h SO 3,4 C 9,9 C 0,0 km/h
12.03.2017 19:00 8,1 C 74 % 1011,4 hPa 0,0 l/m 0,0 km/h SO 3,8 C 8,1 C 0,0 km/h
12.03.2017 20:00 6,4 C 78 % 1011,9 hPa 0,0 l/m 0,0 km/h O 2,8 C 6,4 C 0,0 km/h
12.03.2017 21:00 5,6 C 80 % 1012,6 hPa 0,0 l/m 0,0 km/h O 2,4 C 5,6 C 0,0 km/h
12.03.2017 22:00 4,6 C 80 % 1013,0 hPa 0,0 l/m 0,0 km/h O-NO 1,5 C 4,6 C 0,0 km/h
12.03.2017 23:00 3,2 C 82 % 1013,3 hPa 0,0 l/m 0,0 km/h O-NO 0,4 C 3,2 C 0,0 km/h
Min-Datum _ 11.03.17 10.03.17 06.03.17 - 06.03.17 - 11.03.17 06.03.17 06.03.17
_ Min-Zeit 06:57 17:57 14:57 - 11:57 - 06:57 07:57 11:57
Minimum _ -1,4 C 30 % 997,1 hPa - 0,0 km/h - -3,4 C -5,0 C 0,0 km/h
Max-Datum _ 10.03.17 06.03.17 10.03.17 06.03.17 09.03.17 - 10.03.17 10.03.17 09.03.17
_ Max-Zeit 15:57 18:57 09:57 15:57 10:57 - 09:57 15:57 10:57
Maximum _ 22,7 C 86 % 1025,3 hPa 3,1 l/m 34,3 km/h
S-SW
- 11,2 C 22,7 C 19,1 km/h
S-SW
Durchschnitt _ 7,9 C 76 % 1015,7 hPa #18,6 l/m 4,7 km/h W 3,5 C 6,5 C 2,6 km/h
www.sexauwetter.de